logo
Rechercher aéroport 
image banner adimage banner adimage banner ad
image banner ad

CN18 - San Bernardino Community Hospital

Situé à San Bernardino, United States

ICAO - CN18, IATA -

Données fournies par Airmate  

Information générale

Coordonnées: N34°7'50" W117°19'18"
Élévation : 1213 feet MSL.
 
Voir autres Aéroports à California

Données opérationnelles

Special qualification required
Heure actuelle UTC:
Heure actuelle locale:
Météo à : KSBD - San Bernardino Intl ( 9 km )
METAR: KSBD 270052Z 26007KT 7SM FEW100 35/09 A2985
TAF: KSBD 112201Z 1122/1218 25011KT P6SM VCTS SCT080CB TEMPO 1123/1124 5SM -TSRA BKN025CB FM120300 25006KT P6SM SCT030 FM120900 25004KT P6SM BKN020 FM121700 24004KT P6SM SCT030 SCT100
Voir NOTAMs / SUP AIP / TFR affectant cet aéroport [VIEW]
Fréquences de communication: [VIEW]

Pistes:

Coordonnées de l'aéroport

Adresse: San Bernardino United States

Vue satellite de CN18